Aviation Digital Data Service (ADDS)

Output produced by METARs form (0718 UTC 20 October 2018)
found at http://www.aviationweather.gov/metar/data/
 
NZAA 200700Z AUTO 22008KT 9999 NCD 16/12 Q1027 NOSIG
TAF NZAA 200503Z 2006/2106 22010KT 9999 FEW040 
     FM200800 VRB02KT 9999 BKN020 
     FM202300 22010KT 9999 FEW040
       
NZCH 200700Z AUTO 05007KT 9999 NCD 14/08 Q1020 NOSIG
TAF NZCH 200505Z 2006/2106 06012KT CAVOK 
     BECMG 2009/2011 29005KT 
     BECMG 2022/2100 06012KT
       
TAF AMD NZQN 200248Z 2002/2011 23015KT 9999 BKN080 
     BECMG 2007/2009 02008KT
       
NZWN 200700Z AUTO 36021KT 9999 OVC019/// 14/11 Q1023 NOSIG
TAF NZWN 200503Z 2006/2106 35025G35KT 9999 BKN020 
     BECMG 2010/2012 35015G25KT 
     TEMPO 2010/2020 BKN014 
     FM202200 35012KT 9999 SCT020